createdAt,value
2023-05-24T00:00:25.306Z,6.61
2023-05-24T00:01:25.278Z,6.98
2023-05-24T00:02:25.391Z,6.82
2023-05-24T00:03:25.431Z,6.76
2023-05-24T00:04:25.656Z,6.75
2023-05-24T00:05:25.264Z,7.08
2023-05-24T00:06:25.241Z,5.86
2023-05-24T00:07:25.239Z,6.91
2023-05-24T00:08:25.234Z,6.53
2023-05-24T00:09:25.231Z,5.90
2023-05-24T00:10:25.216Z,6.14
2023-05-24T00:11:25.219Z,6.91
2023-05-24T00:12:25.224Z,6.20
2023-05-24T00:13:25.228Z,6.38
2023-05-24T00:14:25.190Z,6.39
2023-05-24T00:15:25.181Z,6.75
2023-05-24T00:16:25.205Z,6.37
2023-05-24T00:17:25.182Z,6.47
2023-05-24T00:18:25.161Z,6.49
2023-05-24T00:19:25.157Z,6.30
2023-05-24T00:20:25.247Z,6.03
2023-05-24T00:21:25.135Z,6.52
2023-05-24T00:22:25.203Z,6.51
2023-05-24T00:23:25.122Z,6.71
2023-05-24T00:24:25.121Z,6.89
2023-05-24T00:25:25.113Z,6.80
2023-05-24T00:26:25.102Z,6.16
2023-05-24T00:27:25.101Z,6.23
2023-05-24T00:28:25.082Z,6.62
2023-05-24T00:29:25.103Z,6.63
2023-05-24T00:30:25.070Z,6.28
2023-05-24T00:31:25.115Z,6.35
2023-05-24T00:32:25.100Z,6.34
2023-05-24T00:33:25.053Z,5.66
2023-05-24T00:34:25.059Z,5.82
2023-05-24T00:35:25.046Z,5.87
2023-05-24T00:36:25.032Z,5.78
2023-05-24T00:37:25.021Z,6.30
2023-05-24T00:38:25.019Z,6.73
2023-05-24T00:39:25.011Z,5.67
2023-05-24T00:40:25.022Z,6.00
2023-05-24T00:41:25.032Z,6.28
2023-05-24T00:42:25.063Z,6.32
2023-05-24T00:43:25.082Z,6.36
2023-05-24T00:44:25.132Z,6.62
2023-05-24T00:45:25.106Z,6.53
2023-05-24T00:46:25.114Z,7.17
2023-05-24T00:47:25.096Z,5.86
2023-05-24T00:48:25.096Z,6.51
2023-05-24T00:49:25.118Z,6.55
2023-05-24T00:50:25.109Z,6.34
2023-05-24T00:51:25.120Z,6.23
2023-05-24T00:52:25.126Z,6.31
2023-05-24T00:53:25.129Z,6.13
2023-05-24T00:54:25.133Z,5.95
2023-05-24T00:55:25.147Z,6.01
2023-05-24T00:56:25.164Z,6.57
2023-05-24T00:57:25.157Z,6.06
2023-05-24T00:58:25.161Z,6.13
2023-05-24T00:59:34.077Z,6.41
2023-05-24T01:00:25.161Z,6.29
2023-05-24T01:01:25.195Z,5.73
2023-05-24T01:02:25.209Z,6.12
2023-05-24T01:03:25.247Z,6.10
2023-05-24T01:04:25.133Z,5.56
2023-05-24T01:05:25.137Z,5.92
2023-05-24T01:06:25.127Z,6.12
2023-05-24T01:07:25.121Z,6.11
2023-05-24T01:08:25.108Z,6.73
2023-05-24T01:09:25.151Z,5.71
2023-05-24T01:10:25.106Z,6.12
2023-05-24T01:11:25.093Z,5.92
2023-05-24T01:12:25.089Z,5.49
2023-05-24T01:13:25.078Z,6.03
2023-05-24T01:14:25.071Z,5.52
2023-05-24T01:15:25.061Z,5.39
2023-05-24T01:16:25.111Z,5.75
2023-05-24T01:17:25.117Z,6.23
2023-05-24T01:18:25.047Z,5.92
2023-05-24T01:19:25.032Z,6.11
2023-05-24T01:20:25.064Z,6.01
2023-05-24T01:21:25.023Z,6.04
2023-05-24T01:22:25.011Z,5.76
2023-05-24T01:23:25.006Z,6.66
2023-05-24T01:24:25.004Z,5.83
2023-05-24T01:25:24.996Z,6.59
2023-05-24T01:26:24.986Z,6.54
2023-05-24T01:27:24.977Z,5.87
2023-05-24T01:28:24.988Z,5.63
2023-05-24T01:29:24.958Z,5.96
2023-05-24T01:30:24.952Z,6.78
2023-05-24T01:31:24.976Z,6.31
2023-05-24T01:32:25.080Z,5.96
2023-05-24T01:33:24.964Z,5.95
2023-05-24T01:34:24.921Z,6.02
2023-05-24T01:35:24.910Z,5.70
2023-05-24T01:36:24.911Z,5.61
2023-05-24T01:37:24.900Z,6.31
2023-05-24T01:38:24.908Z,5.99
2023-05-24T01:39:24.889Z,5.82
2023-05-24T01:40:24.883Z,5.93
2023-05-24T01:41:24.866Z,6.37
2023-05-24T01:42:24.860Z,7.02
2023-05-24T01:43:24.857Z,6.00
2023-05-24T01:44:24.847Z,6.21
2023-05-24T01:45:24.852Z,6.10
2023-05-24T01:46:24.850Z,5.97
2023-05-24T01:47:24.831Z,6.64
2023-05-24T01:48:24.819Z,6.08
2023-05-24T01:49:24.839Z,5.73
2023-05-24T01:50:25.838Z,6.45
2023-05-24T01:51:24.796Z,5.94
2023-05-24T01:52:24.842Z,5.82
2023-05-24T01:53:24.792Z,6.15
2023-05-24T01:54:24.796Z,5.61
2023-05-24T01:55:24.773Z,5.89
2023-05-24T01:56:24.786Z,5.81
2023-05-24T01:57:24.752Z,6.45
2023-05-24T01:58:24.756Z,6.09
2023-05-24T01:59:24.738Z,5.41
2023-05-24T02:00:24.734Z,6.03
2023-05-24T02:01:24.780Z,5.72
2023-05-24T02:02:24.932Z,6.41
2023-05-24T02:03:24.760Z,5.94
2023-05-24T02:04:24.700Z,5.98
2023-05-24T02:05:24.727Z,6.26
2023-05-24T02:06:24.696Z,6.17
2023-05-24T02:07:24.694Z,6.10
2023-05-24T02:08:24.710Z,6.12
2023-05-24T02:09:24.736Z,6.21
2023-05-24T02:10:24.732Z,5.51
2023-05-24T02:11:24.744Z,5.82
2023-05-24T02:12:24.752Z,5.79
2023-05-24T02:13:24.772Z,5.35
2023-05-24T02:14:24.794Z,5.63
2023-05-24T02:15:24.804Z,5.50
2023-05-24T02:16:24.864Z,6.40
2023-05-24T02:17:24.846Z,6.26
2023-05-24T02:18:24.830Z,6.26
2023-05-24T02:19:24.851Z,5.90
2023-05-24T02:20:24.888Z,6.23
2023-05-24T02:21:24.916Z,5.67
2023-05-24T02:22:24.893Z,6.22
2023-05-24T02:23:24.904Z,5.65
2023-05-24T02:24:24.941Z,6.73
2023-05-24T02:25:24.929Z,5.60
2023-05-24T02:26:24.948Z,5.54
2023-05-24T02:27:24.971Z,6.29
2023-05-24T02:28:24.983Z,5.87
2023-05-24T02:29:25.008Z,6.22
2023-05-24T02:30:25.005Z,6.42
2023-05-24T02:31:25.097Z,5.46
2023-05-24T02:32:25.017Z,5.50
2023-05-24T02:33:25.028Z,5.60
2023-05-24T02:34:25.056Z,6.06
2023-05-24T02:35:25.055Z,5.97
2023-05-24T02:36:25.068Z,6.36
2023-05-24T02:37:25.108Z,6.03
2023-05-24T02:38:25.108Z,5.47
2023-05-24T02:39:25.160Z,6.11
2023-05-24T02:40:25.128Z,5.69
2023-05-24T02:41:25.135Z,5.54
2023-05-24T02:42:25.148Z,6.18
2023-05-24T02:43:25.166Z,5.51
2023-05-24T02:44:25.188Z,5.66
2023-05-24T02:45:25.204Z,5.75
2023-05-24T02:46:25.255Z,6.41
2023-05-24T02:47:25.282Z,6.03
2023-05-24T02:48:25.216Z,5.91
2023-05-24T02:49:25.276Z,6.04
2023-05-24T02:50:25.244Z,6.67
2023-05-24T02:51:25.246Z,6.42
2023-05-24T02:52:25.269Z,5.95
2023-05-24T02:53:25.300Z,6.19
2023-05-24T02:54:25.289Z,6.10
2023-05-24T02:55:25.304Z,5.86
2023-05-24T02:56:25.315Z,5.94
2023-05-24T02:57:25.320Z,5.55
2023-05-24T02:58:25.335Z,5.67
2023-05-24T02:59:25.343Z,5.92
2023-05-24T03:00:25.365Z,6.17
2023-05-24T03:01:25.363Z,6.28
2023-05-24T03:02:25.419Z,6.76
2023-05-24T03:03:25.492Z,5.94
2023-05-24T03:04:25.404Z,5.71
2023-05-24T03:05:25.404Z,6.22
2023-05-24T03:06:25.425Z,6.09
2023-05-24T03:07:25.430Z,5.30
2023-05-24T03:08:25.439Z,5.74
2023-05-24T03:09:25.476Z,6.41
2023-05-24T03:10:25.451Z,5.75
2023-05-24T03:11:25.463Z,5.93
2023-05-24T03:12:25.469Z,5.82
2023-05-24T03:13:25.487Z,6.04
2023-05-24T03:14:25.503Z,6.20
2023-05-24T03:15:25.515Z,6.04
2023-05-24T03:16:25.551Z,5.65
2023-05-24T03:17:25.528Z,5.72
2023-05-24T03:18:25.545Z,5.74
2023-05-24T03:19:25.568Z,6.26
2023-05-24T03:20:25.595Z,5.99
2023-05-24T03:21:25.636Z,5.94
2023-05-24T03:22:25.603Z,6.14
2023-05-24T03:23:25.610Z,6.03
2023-05-24T03:24:25.625Z,5.91
2023-05-24T03:25:25.658Z,6.15
2023-05-24T03:26:25.664Z,5.61
2023-05-24T03:27:25.671Z,5.81
2023-05-24T03:28:25.673Z,5.60
2023-05-24T03:29:25.691Z,6.55
2023-05-24T03:30:25.700Z,5.78
2023-05-24T03:31:25.728Z,5.89
2023-05-24T03:32:25.741Z,5.35
2023-05-24T03:33:25.734Z,5.62
2023-05-24T03:34:25.757Z,6.28
2023-05-24T03:35:25.762Z,5.48
2023-05-24T03:36:25.776Z,5.96
2023-05-24T03:37:25.829Z,5.60
2023-05-24T03:38:25.803Z,5.50
2023-05-24T03:39:25.822Z,6.03
2023-05-24T03:40:25.860Z,6.55
2023-05-24T03:41:25.871Z,6.08
2023-05-24T03:42:25.864Z,5.80
2023-05-24T03:43:25.875Z,6.07
2023-05-24T03:44:25.887Z,5.91
2023-05-24T03:45:37.667Z,6.29
2023-05-24T03:46:25.937Z,5.59
2023-05-24T03:47:25.910Z,5.67
2023-05-24T03:48:25.876Z,5.61
2023-05-24T03:49:25.862Z,5.75
2023-05-24T03:50:25.856Z,5.87
2023-05-24T03:51:25.853Z,5.89
2023-05-24T03:52:25.852Z,5.69
2023-05-24T03:53:25.840Z,5.98
2023-05-24T03:54:25.825Z,6.47
2023-05-24T03:55:25.823Z,5.87
2023-05-24T03:56:25.816Z,5.33
2023-05-24T03:57:25.836Z,5.48
2023-05-24T03:58:25.798Z,5.55
2023-05-24T03:59:25.810Z,6.09
2023-05-24T04:00:25.802Z,5.60
2023-05-24T04:01:33.268Z,6.02
2023-05-24T04:02:25.866Z,5.65
2023-05-24T04:03:25.818Z,5.46
2023-05-24T04:04:25.816Z,5.88
2023-05-24T04:05:25.740Z,5.93
2023-05-24T04:06:25.744Z,5.12
2023-05-24T04:07:25.732Z,5.25
2023-05-24T04:08:25.726Z,5.71
2023-05-24T04:09:25.722Z,6.15
2023-05-24T04:10:25.703Z,5.92
2023-05-24T04:11:25.694Z,5.40
2023-05-24T04:12:25.706Z,5.45
2023-05-24T04:13:25.717Z,5.54
2023-05-24T04:14:25.678Z,5.69
2023-05-24T04:15:25.664Z,5.26
2023-05-24T04:16:25.717Z,5.76
2023-05-24T04:17:25.904Z,6.12
2023-05-24T04:18:25.783Z,5.82
2023-05-24T04:19:25.643Z,5.76
2023-05-24T04:20:25.886Z,6.01
2023-05-24T04:21:25.625Z,5.86
2023-05-24T04:22:25.909Z,5.65
2023-05-24T04:23:25.609Z,5.99
2023-05-24T04:24:25.622Z,5.61
2023-05-24T04:25:25.593Z,5.33
2023-05-24T04:26:25.578Z,5.75
2023-05-24T04:27:25.576Z,5.97
2023-05-24T04:28:25.579Z,5.92
2023-05-24T04:29:25.583Z,5.49
2023-05-24T04:30:25.553Z,5.82
2023-05-24T04:31:25.596Z,5.93
2023-05-24T04:32:25.570Z,5.75
2023-05-24T04:33:25.573Z,5.69
2023-05-24T04:34:25.586Z,5.42
2023-05-24T04:35:25.535Z,5.08
2023-05-24T04:36:25.518Z,5.49
2023-05-24T04:37:25.518Z,4.92
2023-05-24T04:38:25.507Z,5.81
2023-05-24T04:39:25.518Z,5.78
2023-05-24T04:40:25.493Z,5.47
2023-05-24T04:41:25.492Z,5.76
2023-05-24T04:42:25.497Z,5.90
2023-05-24T04:43:25.490Z,4.75
2023-05-24T04:44:25.474Z,5.78
2023-05-24T04:45:25.496Z,5.76
2023-05-24T04:46:25.487Z,5.83
2023-05-24T04:47:25.563Z,5.78
2023-05-24T04:48:25.439Z,5.60
2023-05-24T04:49:25.451Z,5.14
2023-05-24T04:50:25.425Z,5.85
2023-05-24T04:51:25.416Z,4.94
2023-05-24T04:52:25.408Z,5.61
2023-05-24T04:53:25.402Z,5.86
2023-05-24T04:54:25.401Z,5.37
2023-05-24T04:55:25.404Z,5.73
2023-05-24T04:56:25.384Z,5.80
2023-05-24T04:57:25.378Z,5.61
2023-05-24T04:58:25.372Z,5.14
2023-05-24T04:59:25.397Z,5.95
2023-05-24T05:00:25.372Z,5.79
2023-05-24T05:01:25.454Z,5.73
2023-05-24T05:02:25.417Z,5.63
2023-05-24T05:03:25.545Z,5.76
2023-05-24T05:04:25.445Z,5.32
2023-05-24T05:05:25.458Z,6.54
2023-05-24T05:06:25.482Z,5.60
2023-05-24T05:07:25.488Z,5.55
2023-05-24T05:08:25.498Z,5.26
2023-05-24T05:09:25.514Z,5.77
2023-05-24T05:10:25.572Z,5.79
2023-05-24T05:11:25.545Z,5.43
2023-05-24T05:12:25.578Z,4.90
2023-05-24T05:13:25.574Z,5.28
2023-05-24T05:14:25.590Z,5.20
2023-05-24T05:15:25.635Z,5.50
2023-05-24T05:16:25.686Z,5.52
2023-05-24T05:17:25.703Z,6.06
2023-05-24T05:18:25.674Z,5.42
2023-05-24T05:19:25.702Z,6.27
2023-05-24T05:20:26.206Z,5.26
2023-05-24T05:21:25.730Z,6.02
2023-05-24T05:22:25.748Z,5.12
2023-05-24T05:23:25.777Z,5.54
2023-05-24T05:24:26.134Z,5.46
2023-05-24T05:25:25.814Z,6.01
2023-05-24T05:26:25.974Z,5.81
2023-05-24T05:27:25.866Z,5.10
2023-05-24T05:28:25.829Z,5.65
2023-05-24T05:29:26.168Z,5.12
2023-05-24T05:30:25.923Z,5.05
2023-05-24T05:31:26.124Z,5.39
2023-05-24T05:32:26.148Z,5.41
2023-05-24T05:33:26.018Z,5.86
2023-05-24T05:34:26.417Z,5.55
2023-05-24T05:35:25.925Z,5.64
2023-05-24T05:36:26.136Z,5.19
2023-05-24T05:37:25.957Z,4.69
2023-05-24T05:38:25.968Z,5.54
2023-05-24T05:39:26.011Z,5.06
2023-05-24T05:40:26.014Z,5.43
2023-05-24T05:41:26.182Z,5.71
2023-05-24T05:42:26.003Z,5.33
2023-05-24T05:43:26.019Z,5.29
2023-05-24T05:44:26.184Z,5.66
2023-05-24T05:45:26.019Z,4.95
2023-05-24T05:46:26.182Z,5.39
2023-05-24T05:47:26.262Z,5.21
2023-05-24T05:48:29.248Z,5.05
2023-05-24T05:49:26.013Z,5.40
2023-05-24T05:50:26.027Z,5.08
2023-05-24T05:51:26.140Z,5.11
2023-05-24T05:52:26.037Z,5.11
2023-05-24T05:53:27.008Z,4.98
2023-05-24T05:55:34.418Z,5.36
2023-05-24T05:56:26.148Z,6.02
2023-05-24T05:57:25.965Z,5.64
2023-05-24T05:58:57.770Z,5.49
2023-05-24T05:59:34.406Z,5.70
2023-05-24T06:00:25.939Z,5.72
2023-05-24T06:01:29.359Z,5.46
2023-05-24T06:06:48.313Z,5.44
2023-05-24T06:07:45.604Z,5.52
2023-05-24T06:08:45.071Z,5.79
2023-05-24T06:09:45.077Z,5.58
2023-05-24T06:10:45.189Z,5.64
2023-05-24T06:11:45.124Z,5.51
2023-05-24T06:12:45.106Z,5.50
2023-05-24T06:13:45.045Z,5.41
2023-05-24T06:14:45.136Z,6.09
2023-05-24T06:15:45.082Z,5.80
2023-05-24T06:16:45.075Z,5.48
2023-05-24T06:17:45.043Z,4.74
2023-05-24T06:18:57.255Z,5.61
2023-05-24T06:19:48.225Z,5.09
2023-05-24T06:20:45.455Z,4.79
2023-05-24T06:21:58.972Z,5.52
2023-05-24T06:22:59.490Z,5.19
2023-05-24T06:25:10.497Z,6.56
2023-05-24T06:26:11.471Z,5.03
2023-05-24T06:27:11.462Z,5.16
2023-05-24T06:28:11.452Z,5.82
2023-05-24T06:29:11.670Z,5.18
2023-05-24T06:30:11.533Z,5.10
2023-05-24T06:31:11.484Z,5.47
2023-05-24T06:32:11.414Z,5.15
2023-05-24T06:33:11.424Z,4.88
2023-05-24T06:34:11.430Z,5.53
2023-05-24T06:35:11.423Z,4.64
2023-05-24T06:36:11.419Z,5.57
2023-05-24T06:37:11.415Z,5.28
2023-05-24T06:38:11.387Z,5.16
2023-05-24T06:39:11.678Z,5.15
2023-05-24T06:40:11.383Z,5.73
2023-05-24T06:41:11.663Z,5.95
2023-05-24T06:42:11.380Z,5.16
2023-05-24T06:43:11.346Z,5.21
2023-05-24T06:44:11.349Z,5.58
2023-05-24T06:45:11.347Z,5.45
2023-05-24T06:46:12.663Z,5.19
2023-05-24T06:47:11.348Z,5.39
2023-05-24T06:48:12.421Z,5.73
2023-05-24T06:49:18.733Z,4.96
2023-05-24T06:50:14.505Z,4.91
2023-05-24T06:51:11.701Z,4.64
2023-05-24T06:52:11.675Z,4.89
2023-05-24T06:53:11.351Z,4.46
2023-05-24T06:54:11.287Z,4.33
2023-05-24T06:55:12.270Z,4.24
2023-05-24T06:56:11.686Z,4.52
2023-05-24T06:57:14.870Z,4.59
2023-05-24T06:58:14.525Z,4.31
2023-05-24T06:59:11.247Z,4.35
2023-05-24T07:00:11.253Z,3.98
2023-05-24T07:01:11.702Z,3.96
2023-05-24T07:02:11.246Z,3.96
2023-05-24T07:03:11.264Z,4.16
2023-05-24T07:04:11.257Z,4.08
2023-05-24T07:05:11.209Z,3.93
2023-05-24T07:06:11.688Z,3.82
2023-05-24T07:07:11.672Z,4.04
2023-05-24T07:08:11.252Z,4.77
2023-05-24T07:09:11.207Z,3.64
2023-05-24T07:10:11.162Z,3.92
2023-05-24T07:11:11.217Z,4.04
2023-05-24T07:12:11.172Z,4.09
2023-05-24T07:13:12.176Z,4.23
2023-05-24T07:14:11.127Z,4.23
2023-05-24T07:15:11.129Z,3.97
2023-05-24T07:16:11.138Z,4.11
2023-05-24T07:17:11.393Z,3.38
2023-05-24T07:18:11.108Z,4.59
2023-05-24T07:19:11.095Z,4.09
2023-05-24T07:20:11.236Z,3.54
2023-05-24T07:21:11.082Z,4.38
2023-05-24T07:22:11.200Z,3.73
2023-05-24T07:23:12.102Z,3.73
2023-05-24T07:24:11.079Z,3.56
2023-05-24T07:25:11.110Z,3.70
2023-05-24T07:26:11.077Z,4.04
2023-05-24T07:27:11.180Z,3.98
2023-05-24T07:28:11.052Z,3.80
2023-05-24T07:29:11.035Z,4.01
2023-05-24T07:30:23.650Z,4.05
2023-05-24T07:31:11.187Z,3.73
2023-05-24T07:32:11.077Z,3.98
2023-05-24T07:33:18.478Z,4.17
2023-05-24T07:34:14.378Z,3.75
2023-05-24T07:35:11.010Z,4.10
2023-05-24T07:36:12.008Z,3.75
2023-05-24T07:37:11.437Z,3.54
2023-05-24T07:39:26.772Z,4.48
2023-05-24T07:40:14.215Z,4.61
2023-05-24T07:41:12.449Z,4.08
2023-05-24T07:42:18.813Z,3.94
2023-05-24T07:43:27.051Z,4.11
2023-05-24T07:44:14.246Z,4.16
2023-05-24T07:45:11.077Z,4.40
2023-05-24T07:46:12.031Z,4.25
2023-05-24T07:47:11.359Z,4.04
2023-05-24T07:49:12.003Z,4.41
2023-05-24T07:50:18.596Z,3.68
2023-05-24T07:51:10.975Z,3.67
2023-05-24T07:52:10.952Z,4.12
2023-05-24T07:53:10.944Z,3.58
2023-05-24T07:54:10.946Z,3.99
2023-05-24T07:57:18.392Z,4.19
2023-05-24T07:58:11.322Z,4.71
2023-05-24T07:59:11.902Z,4.41
2023-05-24T08:00:11.299Z,4.18
2023-05-24T08:02:10.899Z,3.44
2023-05-24T08:03:10.959Z,4.89
2023-05-24T08:04:14.138Z,5.17
2023-05-24T08:05:10.881Z,5.06
2023-05-24T08:06:11.422Z,4.47
2023-05-24T08:07:14.034Z,4.00
2023-05-24T08:08:10.861Z,4.76
2023-05-24T08:09:12.078Z,4.78
2023-05-24T08:10:10.829Z,4.54
2023-05-24T08:11:10.860Z,4.35
2023-05-24T08:12:10.798Z,3.84
2023-05-24T08:13:10.995Z,3.93
2023-05-24T08:14:10.938Z,4.19
2023-05-24T08:15:10.854Z,4.32
2023-05-24T08:16:10.892Z,4.34
2023-05-24T08:17:10.886Z,4.21
2023-05-24T08:18:10.928Z,4.35
2023-05-24T08:19:10.920Z,4.10
2023-05-24T08:20:10.931Z,4.15
2023-05-24T08:21:11.225Z,4.27
2023-05-24T08:22:10.877Z,4.17
2023-05-24T08:23:10.878Z,4.49
2023-05-24T08:24:10.880Z,4.09
2023-05-24T08:25:10.869Z,4.22
2023-05-24T08:26:11.219Z,4.53
2023-05-24T08:27:10.893Z,4.27
2023-05-24T08:28:10.954Z,4.19
2023-05-24T08:29:11.014Z,4.51
2023-05-24T08:30:14.080Z,3.93
2023-05-24T08:31:11.227Z,4.38
2023-05-24T08:32:11.009Z,4.51
2023-05-24T08:33:10.905Z,4.02
2023-05-24T08:34:10.870Z,4.82
2023-05-24T08:35:20.774Z,4.09
2023-05-24T08:36:11.216Z,4.12
2023-05-24T08:37:10.831Z,4.43
2023-05-24T08:38:10.840Z,3.74
2023-05-24T08:39:11.653Z,4.71
2023-05-24T08:40:11.217Z,4.23
2023-05-24T08:42:10.924Z,4.06
2023-05-24T08:43:09.828Z,4.41
2023-05-24T08:44:14.151Z,3.86
2023-05-24T08:45:11.418Z,4.25
2023-05-24T08:46:10.822Z,3.75
2023-05-24T08:47:26.420Z,3.98
2023-05-24T08:48:10.907Z,3.89
2023-05-24T08:49:10.759Z,4.43
2023-05-24T08:50:11.221Z,4.31
2023-05-24T08:51:10.745Z,3.76
2023-05-24T08:52:10.771Z,4.16
2023-05-24T08:53:10.732Z,3.94
2023-05-24T08:54:10.730Z,4.29
2023-05-24T08:55:10.714Z,4.48
2023-05-24T08:56:11.216Z,4.58
2023-05-24T08:57:10.720Z,3.82
2023-05-24T08:58:10.725Z,4.31
2023-05-24T08:59:10.714Z,3.81
2023-05-24T09:00:10.918Z,4.39
2023-05-24T09:01:10.848Z,4.29
2023-05-24T09:02:10.790Z,3.90
2023-05-24T09:03:10.885Z,3.66
2023-05-24T09:04:10.774Z,3.99
2023-05-24T09:05:10.646Z,4.16
2023-05-24T09:06:10.655Z,3.90
2023-05-24T09:07:10.641Z,4.10
2023-05-24T09:08:18.166Z,4.53
2023-05-24T09:09:10.627Z,4.46
2023-05-24T09:10:14.017Z,4.16
2023-05-24T09:11:10.646Z,4.63
2023-05-24T09:12:16.748Z,3.43
2023-05-24T09:13:10.607Z,4.18
2023-05-24T09:14:10.720Z,4.61
2023-05-24T09:15:10.593Z,3.83
2023-05-24T09:16:11.379Z,3.67
2023-05-24T09:17:10.580Z,4.22
2023-05-24T09:18:10.611Z,3.87
2023-05-24T09:19:10.561Z,3.85
2023-05-24T09:20:11.040Z,4.17
2023-05-24T09:21:10.972Z,3.60
2023-05-24T09:22:10.787Z,4.39
2023-05-24T09:23:10.542Z,4.46
2023-05-24T09:24:10.569Z,4.53
2023-05-24T09:25:10.548Z,4.95
2023-05-24T09:26:10.573Z,5.94
2023-05-24T09:27:10.512Z,5.85
2023-05-24T09:28:10.522Z,6.03
2023-05-24T09:29:10.495Z,5.88
2023-05-24T09:30:13.714Z,6.42
2023-05-24T09:31:10.931Z,5.85
2023-05-24T09:32:10.776Z,5.49
2023-05-24T09:33:10.497Z,7.19
2023-05-24T09:34:10.479Z,7.01
2023-05-24T09:35:11.011Z,6.19
2023-05-24T09:36:10.756Z,6.71
2023-05-24T09:37:10.466Z,6.41
2023-05-24T09:38:10.431Z,6.63
2023-05-24T09:39:10.494Z,5.95
2023-05-24T09:40:10.727Z,6.44
2023-05-24T09:41:10.747Z,5.95
2023-05-24T09:42:10.408Z,6.50
2023-05-24T09:43:10.440Z,5.82
2023-05-24T09:44:10.388Z,5.87
2023-05-24T09:45:10.385Z,6.40
2023-05-24T09:46:10.781Z,5.49
2023-05-24T09:47:10.481Z,5.88
2023-05-24T09:48:10.431Z,5.01
2023-05-24T09:49:10.734Z,5.10
2023-05-24T09:50:11.357Z,5.29
2023-05-24T09:51:10.777Z,5.48
2023-05-24T09:52:10.449Z,4.94
2023-05-24T09:53:10.321Z,5.39
2023-05-24T09:54:10.320Z,4.90
2023-05-24T09:55:10.330Z,4.80
2023-05-24T09:56:10.297Z,4.98
2023-05-24T09:57:10.727Z,4.49
2023-05-24T09:58:10.281Z,4.90
2023-05-24T09:59:10.311Z,4.47
2023-05-24T10:00:10.308Z,4.27
2023-05-24T10:01:10.809Z,4.74
2023-05-24T10:02:10.421Z,4.68
2023-05-24T10:03:10.570Z,4.20
2023-05-24T10:04:10.834Z,4.50
2023-05-24T10:05:10.764Z,4.78
2023-05-24T10:06:10.611Z,4.44
2023-05-24T10:07:10.655Z,4.62
2023-05-24T10:08:10.697Z,4.10
2023-05-24T10:09:10.740Z,4.18
2023-05-24T10:10:10.780Z,4.25
2023-05-24T10:11:10.814Z,4.21
2023-05-24T10:12:10.855Z,4.40
2023-05-24T10:13:18.650Z,4.19
2023-05-24T10:14:10.898Z,4.64
2023-05-24T10:15:10.871Z,4.11
2023-05-24T10:16:11.145Z,4.26
2023-05-24T10:17:10.999Z,3.69
2023-05-24T10:18:13.830Z,3.92
2023-05-24T10:19:10.859Z,3.82
2023-05-24T10:20:10.989Z,4.22
2023-05-24T10:21:10.863Z,4.13
2023-05-24T10:22:10.836Z,4.08
2023-05-24T10:23:11.249Z,4.59
2023-05-24T10:24:10.826Z,4.22
2023-05-24T10:25:10.883Z,4.48
2023-05-24T10:26:10.832Z,3.83
2023-05-24T10:27:11.249Z,4.32
2023-05-24T10:28:11.265Z,4.22
2023-05-24T10:29:10.776Z,4.04
2023-05-24T10:30:13.702Z,3.78
2023-05-24T10:31:10.813Z,4.74
2023-05-24T10:32:10.760Z,3.95
2023-05-24T10:33:11.266Z,3.76
2023-05-24T10:34:10.743Z,3.91
2023-05-24T10:35:10.735Z,4.08
2023-05-24T10:36:10.836Z,4.21
2023-05-24T10:37:10.725Z,4.33
2023-05-24T10:38:10.749Z,4.26
2023-05-24T10:39:10.713Z,4.78
2023-05-24T10:40:10.728Z,4.39
2023-05-24T10:41:10.718Z,4.81
2023-05-24T10:42:10.694Z,4.58
2023-05-24T10:43:10.682Z,4.09
2023-05-24T10:44:10.690Z,3.91
2023-05-24T10:45:10.664Z,4.32
2023-05-24T10:46:10.795Z,3.56
2023-05-24T10:47:10.777Z,4.23
2023-05-24T10:48:10.761Z,3.52
2023-05-24T10:49:10.652Z,3.48
2023-05-24T10:50:10.629Z,4.10
2023-05-24T10:51:10.630Z,3.58
2023-05-24T10:52:10.818Z,4.13
2023-05-24T10:53:10.624Z,4.33
2023-05-24T10:54:10.611Z,4.08
2023-05-24T10:55:10.664Z,3.45
2023-05-24T10:56:10.587Z,4.02
2023-05-24T10:57:10.593Z,3.29
2023-05-24T10:58:10.584Z,3.42
2023-05-24T10:59:10.560Z,3.65
2023-05-24T11:00:13.607Z,3.62
2023-05-24T11:01:10.561Z,3.14
2023-05-24T11:02:10.872Z,3.70
2023-05-24T11:03:10.663Z,3.48
2023-05-24T11:04:10.538Z,3.52
2023-05-24T11:05:10.603Z,3.71
2023-05-24T11:06:10.532Z,3.16
2023-05-24T11:07:10.556Z,3.55
2023-05-24T11:08:10.559Z,3.56
2023-05-24T11:09:10.513Z,3.41
2023-05-24T11:10:10.564Z,3.40
2023-05-24T11:11:22.335Z,4.37
2023-05-24T11:12:10.479Z,3.12
2023-05-24T11:13:10.474Z,4.04
2023-05-24T11:14:10.494Z,4.27
2023-05-24T11:15:10.455Z,3.72
2023-05-24T11:16:10.569Z,3.86
2023-05-24T11:17:10.428Z,4.29
2023-05-24T11:18:10.480Z,3.80
2023-05-24T11:19:10.421Z,4.25
2023-05-24T11:20:10.533Z,4.84
2023-05-24T11:21:10.426Z,4.67
2023-05-24T11:22:10.432Z,4.84
2023-05-24T11:23:10.396Z,4.96
2023-05-24T11:24:10.422Z,4.18
2023-05-24T11:25:10.387Z,4.40
2023-05-24T11:26:10.384Z,4.01
2023-05-24T11:27:10.369Z,4.51
2023-05-24T11:28:10.396Z,5.47
2023-05-24T11:29:10.361Z,5.76
2023-05-24T11:30:10.386Z,5.99
2023-05-24T11:31:10.389Z,5.24
2023-05-24T11:32:10.521Z,5.82
2023-05-24T11:33:10.387Z,5.65
2023-05-24T11:34:10.322Z,4.38
2023-05-24T11:35:10.773Z,4.13
2023-05-24T11:36:10.315Z,4.32
2023-05-24T11:37:10.779Z,4.47
2023-05-24T11:38:10.308Z,4.49
2023-05-24T11:39:10.293Z,3.82
2023-05-24T11:40:10.352Z,4.67
2023-05-24T11:41:10.271Z,4.89
2023-05-24T11:42:10.268Z,5.07
2023-05-24T11:43:10.260Z,5.10
2023-05-24T11:44:10.251Z,4.81
2023-05-24T11:45:10.251Z,4.72
2023-05-24T11:46:10.285Z,5.22
2023-05-24T11:47:10.240Z,4.97
2023-05-24T11:48:10.351Z,6.57
2023-05-24T11:49:10.266Z,6.73
2023-05-24T11:50:10.455Z,7.34
2023-05-24T11:51:10.362Z,6.12
2023-05-24T11:52:10.408Z,6.33
2023-05-24T11:53:10.457Z,5.58
2023-05-24T11:54:10.945Z,5.69
2023-05-24T11:55:10.553Z,6.20
2023-05-24T11:56:10.663Z,5.42
2023-05-24T11:57:10.781Z,5.60
2023-05-24T11:58:10.693Z,5.41
2023-05-24T11:59:10.743Z,5.30
2023-05-24T12:00:10.793Z,6.23
2023-05-24T12:01:10.903Z,6.26
2023-05-24T12:02:11.033Z,5.95
2023-05-24T12:03:11.184Z,5.77
2023-05-24T12:04:11.392Z,5.93
2023-05-24T12:05:12.032Z,5.65
2023-05-24T12:06:11.102Z,5.73
2023-05-24T12:07:11.288Z,6.39
2023-05-24T12:08:12.616Z,6.83
2023-05-24T12:09:11.793Z,6.33
2023-05-24T12:10:11.402Z,5.47
2023-05-24T12:11:11.454Z,5.32
2023-05-24T12:12:11.826Z,6.05
2023-05-24T12:13:11.548Z,5.72
2023-05-24T12:14:11.587Z,6.40
2023-05-24T12:15:11.631Z,6.12
2023-05-24T12:16:14.933Z,5.82
2023-05-24T12:17:11.658Z,6.58
2023-05-24T12:18:11.663Z,5.87
2023-05-24T12:19:20.153Z,6.12
2023-05-24T12:20:11.700Z,5.77
2023-05-24T12:21:11.660Z,5.41
2023-05-24T12:22:11.628Z,6.24
2023-05-24T12:23:11.615Z,5.76
2023-05-24T12:24:11.604Z,5.99
2023-05-24T12:25:11.599Z,5.72
2023-05-24T12:26:11.598Z,5.09
2023-05-24T12:27:11.792Z,5.98
2023-05-24T12:28:11.642Z,4.91
2023-05-24T12:29:11.578Z,5.28
2023-05-24T12:30:11.580Z,5.59
2023-05-24T12:31:11.609Z,5.39
2023-05-24T12:32:11.546Z,5.18
2023-05-24T12:33:11.559Z,4.77
2023-05-24T12:34:11.809Z,5.05
2023-05-24T12:35:11.554Z,5.65
2023-05-24T12:36:11.591Z,5.00
2023-05-24T12:37:11.518Z,5.73
2023-05-24T12:38:11.508Z,4.77
2023-05-24T12:39:11.510Z,5.10
2023-05-24T12:40:11.505Z,5.33
2023-05-24T12:41:13.427Z,6.16
2023-05-24T12:42:11.487Z,6.00
2023-05-24T12:43:11.479Z,7.14
2023-05-24T12:44:11.539Z,8.24
2023-05-24T12:45:11.465Z,8.68
2023-05-24T12:46:11.481Z,7.31
2023-05-24T12:47:11.507Z,7.45
2023-05-24T12:48:11.461Z,6.65
2023-05-24T12:49:11.431Z,6.05
2023-05-24T12:50:11.423Z,6.83
2023-05-24T12:51:11.438Z,7.26
2023-05-24T12:52:12.385Z,6.07
2023-05-24T12:53:11.398Z,6.38
2023-05-24T12:54:11.408Z,6.01
2023-05-24T12:55:11.393Z,6.39
2023-05-24T12:56:11.388Z,6.38
2023-05-24T12:57:11.396Z,7.06
2023-05-24T12:58:11.382Z,6.02
2023-05-24T12:59:11.359Z,6.01
2023-05-24T13:00:11.936Z,6.89
2023-05-24T13:01:11.363Z,6.83
2023-05-24T13:02:11.339Z,6.26
2023-05-24T13:03:11.360Z,5.43
2023-05-24T13:04:11.348Z,5.95
2023-05-24T13:05:11.394Z,5.85
2023-05-24T13:06:11.378Z,6.63
2023-05-24T13:07:11.381Z,7.59
2023-05-24T13:08:11.817Z,6.59
2023-05-24T13:09:11.422Z,6.71
2023-05-24T13:10:11.452Z,6.34
2023-05-24T13:11:11.530Z,6.37
2023-05-24T13:12:11.469Z,6.69
2023-05-24T13:13:11.496Z,7.06
2023-05-24T13:14:11.545Z,5.89
2023-05-24T13:15:11.509Z,6.28
2023-05-24T13:16:11.589Z,6.35
2023-05-24T13:17:11.599Z,5.91
2023-05-24T13:18:11.582Z,6.04
2023-05-24T13:19:11.556Z,6.41
2023-05-24T13:20:11.605Z,6.40
2023-05-24T13:21:12.488Z,6.36
2023-05-24T13:22:11.584Z,6.07
2023-05-24T13:23:11.583Z,6.39
2023-05-24T13:24:11.630Z,6.03
2023-05-24T13:25:11.605Z,6.10
2023-05-24T13:26:11.616Z,6.47
2023-05-24T13:27:11.633Z,6.31
2023-05-24T13:28:11.619Z,5.93
2023-05-24T13:30:10.623Z,6.23
2023-05-24T13:31:11.699Z,6.29
2023-05-24T13:32:11.662Z,6.23